Main page
Satellite images 15-day forecastsClimateMarine weather Cyclones Lightning AirportsFAQ Newsletter About
Weather : Europe Africa North America South America Asia Australia-Oceania Others
Languages Contact

Gloucester, England

Gloucestershire Airport Staverton

latitude: 51-54N, longitude: 002-10W, elevation: 29 m


METAR: EGBJ 011120Z 21007KT 180V260 9999 SCT028 22/16 Q1007
short-TAF: EGBJ 011059Z 0112/0119 19009KT 9999 SCT025 TEMPO 0112/0119 7000 SHRA PROB30 TEMPO 0112/0119 4000 +SHRA BKN012
long-TAF: missing

Time: 12:49 (11:49 UTC)

Current weather observation

The report was made 29 minutes ago, at 11:20 UTC  
Wind 07 kt from the South/Southwest, varying between South and West
Temperature 22°C
Humidity 69%
Pressure 1007 hPa
Visibility 10 km or more
Scattered clouds at a height of 2800 ft

Change units

Forecast

The report was made 34 minutes ago, at 11:15 UTC  
Forecast valid from 01 at 12 UTC to 01 at 19 UTC
Wind 09 kt from the South
Visibility 10 km or more
Scattered clouds at a height of 2500 ft
Temporary
from 01 at 12 UTC to 01 at 19 UTC
Visibility 7000 m
rain showers
Probability 30% :
Temporary
from 01 at 12 UTC to 01 at 19 UTC
Visibility 4000 m
Broken clouds at a height of 1200 ft
heavy rain showers
The information on this site is subject to a disclaimer
Weather : Europe Africa North America South America Asia Australia-Oceania Others
Satellite images 15-day forecastsClimateMarine weather Cyclones Lightning AirportsFAQ Languages Contact Newsletter About